createdAt,value
2017-08-04T06:12:41.507Z,25.93
2017-08-04T06:15:09.085Z,22.97
2017-08-04T06:17:36.666Z,15.07
2017-08-04T06:20:04.262Z,15.33
2017-08-04T06:22:31.842Z,20.97
2017-08-04T06:24:59.426Z,11.40
2017-08-04T06:27:27.466Z,13.43
2017-08-04T06:29:55.031Z,14.50
2017-08-04T06:32:22.622Z,13.23
2017-08-04T06:34:51.998Z,8.20
2017-08-04T06:37:19.607Z,12.50
2017-08-04T06:39:47.199Z,10.03
2017-08-04T06:42:14.818Z,23.83
2017-08-04T06:44:42.394Z,17.00
2017-08-04T06:47:09.994Z,10.20
2017-08-04T06:49:49.958Z,14.47
2017-08-04T06:52:29.395Z,9.40
2017-08-04T06:55:08.773Z,12.70
2017-08-04T06:57:36.362Z,11.83
2017-08-04T07:00:03.983Z,9.50
2017-08-04T07:02:31.577Z,11.83
2017-08-04T07:04:59.130Z,9.50
2017-08-04T07:07:26.722Z,12.90
2017-08-04T07:09:54.351Z,13.50
2017-08-04T07:12:21.918Z,22.60
2017-08-04T07:14:49.502Z,14.33
2017-08-04T07:17:17.095Z,16.33
2017-08-04T07:19:45.187Z,16.50
2017-08-04T07:22:13.558Z,15.73
2017-08-04T07:24:41.154Z,11.80
2017-08-04T07:27:08.726Z,14.32
2017-08-04T07:29:37.066Z,15.87
2017-08-04T07:32:05.034Z,16.03
2017-08-04T07:34:33.026Z,11.57
2017-08-04T07:37:00.623Z,8.10
2017-08-04T07:39:29.782Z,11.07
2017-08-04T07:41:57.352Z,14.43
2017-08-04T07:44:25.898Z,10.87
2017-08-04T07:46:54.042Z,12.13
2017-08-04T07:49:21.834Z,13.10
2017-08-04T07:51:49.426Z,9.07
2017-08-04T07:54:17.295Z,17.47
2017-08-04T07:56:44.891Z,10.37
2017-08-04T07:59:13.095Z,10.60
2017-08-04T08:01:40.714Z,12.13
2017-08-04T08:04:08.311Z,9.53
2017-08-04T08:06:35.902Z,10.40
2017-08-04T08:09:03.601Z,11.40
2017-08-04T08:11:31.165Z,12.47
2017-08-04T08:13:58.764Z,10.40
2017-08-04T08:16:27.234Z,21.50
2017-08-04T08:18:54.823Z,8.17
2017-08-04T08:21:22.430Z,8.10
2017-08-04T08:23:50.062Z,10.50
2017-08-04T08:26:17.770Z,10.50
2017-08-04T08:28:45.358Z,8.50
2017-08-04T08:31:12.974Z,12.07
2017-08-04T08:33:40.547Z,14.53
2017-08-04T08:36:08.110Z,10.60
2017-08-04T08:38:35.726Z,7.57
2017-08-04T08:41:05.393Z,7.60
2017-08-04T08:43:32.954Z,9.10
2017-08-04T08:46:04.084Z,14.03
2017-08-04T08:48:31.691Z,8.27
2017-08-04T08:50:59.296Z,8.57
2017-08-04T08:53:26.911Z,7.93
2017-08-04T08:55:54.527Z,8.97
2017-08-04T08:58:22.119Z,8.07
2017-08-04T09:00:49.919Z,8.77
2017-08-04T09:03:17.510Z,8.93
2017-08-04T09:05:45.074Z,7.97
2017-08-04T09:08:12.691Z,8.03
2017-08-04T09:10:40.259Z,10.93
2017-08-04T09:13:08.686Z,11.27
2017-08-04T09:15:36.583Z,7.60
2017-08-04T09:18:04.206Z,9.13
2017-08-04T09:20:31.814Z,10.00
2017-08-04T09:22:59.915Z,7.30
2017-08-04T09:25:30.036Z,8.80
2017-08-04T09:27:57.594Z,8.67
2017-08-04T09:30:26.779Z,9.57
2017-08-04T09:32:54.602Z,8.07
2017-08-04T09:35:22.423Z,9.27
2017-08-04T09:37:50.037Z,8.60
2017-08-04T09:40:17.646Z,13.83
2017-08-04T09:42:45.835Z,8.73
2017-08-04T09:45:14.298Z,10.60
2017-08-04T09:47:42.269Z,9.20
2017-08-04T09:50:11.767Z,9.43
2017-08-04T09:52:40.747Z,8.90
2017-08-04T09:55:08.666Z,8.37
2017-08-04T09:57:38.427Z,9.10
2017-08-04T10:00:06.267Z,8.57
2017-08-04T10:02:35.084Z,8.80
2017-08-04T10:05:03.162Z,8.50
2017-08-04T10:07:31.207Z,8.27
2017-08-04T10:09:59.482Z,12.43
2017-08-04T10:12:29.094Z,9.20
2017-08-04T10:14:58.529Z,8.83
2017-08-04T10:17:26.869Z,8.50
2017-08-04T10:19:55.922Z,12.50
2017-08-04T10:22:24.943Z,9.27
2017-08-04T10:24:53.583Z,9.17
2017-08-04T10:27:22.083Z,8.53
2017-08-04T10:29:51.402Z,8.10
2017-08-04T10:32:19.122Z,9.03
2017-08-04T10:34:47.340Z,9.37
2017-08-04T10:37:16.291Z,8.63
2017-08-04T10:39:44.052Z,9.07
2017-08-04T10:42:11.850Z,8.30
2017-08-04T10:44:39.838Z,9.70
2017-08-04T10:47:07.838Z,10.23
2017-08-04T10:49:35.801Z,8.00
2017-08-04T10:52:05.195Z,9.30
2017-08-04T10:54:32.791Z,9.93
2017-08-04T10:57:00.390Z,9.43
2017-08-04T10:59:28.951Z,11.50
2017-08-04T11:01:56.515Z,9.10
2017-08-04T11:04:24.102Z,9.03
2017-08-04T11:06:51.734Z,9.23
2017-08-04T11:09:19.298Z,9.93
2017-08-04T11:11:46.863Z,9.40
2017-08-04T11:14:14.479Z,9.40
2017-08-04T11:16:42.075Z,10.10
2017-08-04T11:19:09.668Z,8.60
2017-08-04T11:21:37.287Z,9.40
2017-08-04T11:24:04.875Z,9.30
2017-08-04T11:26:32.665Z,11.33
2017-08-04T11:29:00.286Z,10.40
2017-08-04T11:31:27.862Z,12.50
2017-08-04T11:33:55.427Z,9.77
2017-08-04T11:36:23.052Z,11.00
2017-08-04T11:38:50.626Z,11.07
2017-08-04T11:41:18.953Z,12.97
2017-08-04T11:43:46.582Z,11.87
2017-08-04T11:46:14.166Z,9.37
2017-08-04T11:48:41.770Z,9.40
2017-08-04T11:51:09.385Z,11.20
2017-08-04T11:53:36.986Z,12.10
2017-08-04T11:56:04.587Z,10.40
2017-08-04T11:58:33.147Z,9.23
2017-08-04T12:01:00.739Z,9.43
2017-08-04T12:03:28.338Z,13.10
2017-08-04T12:05:56.199Z,9.30
2017-08-04T12:08:24.742Z,9.20
2017-08-04T12:10:52.355Z,10.87
2017-08-04T12:13:19.964Z,9.57
2017-08-04T12:15:48.245Z,9.43
2017-08-04T12:18:15.990Z,9.80
2017-08-04T12:20:44.034Z,9.43
2017-08-04T12:23:11.654Z,8.80
2017-08-04T12:25:39.239Z,8.80
2017-08-04T12:28:06.848Z,8.93
2017-08-04T12:30:34.467Z,9.63
2017-08-04T12:33:02.619Z,10.90
2017-08-04T12:35:30.234Z,12.63
2017-08-04T12:37:57.918Z,14.60
2017-08-04T12:40:26.700Z,12.67
2017-08-04T12:42:54.469Z,11.77
2017-08-04T12:45:22.346Z,13.40
2017-08-04T12:47:50.275Z,10.47
2017-08-04T12:50:25.493Z,9.80
2017-08-04T12:52:53.189Z,10.47
2017-08-04T12:55:20.798Z,17.10
2017-08-04T12:57:50.114Z,12.77
2017-08-04T13:00:19.231Z,12.53
2017-08-04T13:02:46.871Z,12.80
2017-08-04T13:05:15.080Z,14.03
2017-08-04T13:07:43.151Z,10.90
2017-08-04T13:10:11.366Z,15.00
2017-08-04T13:12:39.303Z,15.17
2017-08-04T13:15:06.944Z,11.10
2017-08-04T13:17:34.959Z,14.77
2017-08-04T13:20:03.795Z,16.13
2017-08-04T13:22:32.408Z,11.70
2017-08-04T13:25:00.000Z,16.90
2017-08-04T13:27:29.160Z,11.93
2017-08-04T13:29:58.799Z,12.27
2017-08-04T13:32:27.354Z,15.50
2017-08-04T13:34:56.366Z,15.30
2017-08-04T13:37:24.639Z,16.80
2017-08-04T13:39:53.498Z,13.70
2017-08-04T13:42:21.826Z,13.30
2017-08-04T13:44:49.647Z,16.70
2017-08-04T13:47:17.290Z,18.30
2017-08-04T13:49:45.226Z,13.83
2017-08-04T13:52:13.355Z,12.73
2017-08-04T13:54:42.650Z,14.63
2017-08-04T13:57:11.771Z,14.77
2017-08-04T13:59:40.058Z,15.63
2017-08-04T14:02:08.090Z,13.13
2017-08-04T14:04:37.234Z,13.70
2017-08-04T14:07:07.098Z,13.50
2017-08-04T14:09:35.077Z,11.87
2017-08-04T14:12:02.683Z,14.30
2017-08-04T14:14:31.371Z,14.63
2017-08-04T14:16:59.502Z,13.77
2017-08-04T14:19:28.484Z,12.37
2017-08-04T14:21:57.056Z,11.47
2017-08-04T14:24:24.950Z,12.17
2017-08-04T14:26:52.615Z,12.20
2017-08-04T14:29:20.757Z,14.03
2017-08-04T14:31:49.194Z,12.97
2017-08-04T14:34:17.937Z,13.27
2017-08-04T14:36:45.535Z,12.07
2017-08-04T14:39:13.148Z,15.83
2017-08-04T14:41:41.726Z,13.80
2017-08-04T14:44:09.330Z,14.07
2017-08-04T14:46:37.663Z,12.63
2017-08-04T14:49:05.469Z,11.70
2017-08-04T14:51:33.123Z,39.53
2017-08-04T14:54:00.722Z,18.13
2017-08-04T14:56:28.362Z,57.60
2017-08-04T14:58:55.947Z,59.97
2017-08-04T15:01:23.550Z,42.67
2017-08-04T15:03:51.162Z,69.20
2017-08-04T15:06:18.791Z,84.67
2017-08-04T15:08:51.215Z,106.40
2017-08-04T15:11:19.644Z,118.97
2017-08-04T15:13:50.504Z,137.03
2017-08-04T15:16:19.954Z,158.90
2017-08-04T15:18:49.948Z,168.40
2017-08-04T15:21:26.398Z,204.13
2017-08-04T15:23:56.525Z,189.03
2017-08-04T15:26:24.977Z,183.73
2017-08-04T15:28:53.171Z,174.87
2017-08-04T15:31:22.430Z,174.50
2017-08-04T15:33:50.029Z,144.10
2017-08-04T15:36:18.130Z,125.53
2017-08-04T15:38:45.762Z,106.63
2017-08-04T15:41:13.982Z,95.37
2017-08-04T15:43:41.567Z,86.47
2017-08-04T15:46:09.466Z,75.93
2017-08-04T15:48:37.794Z,67.93
2017-08-04T15:51:06.852Z,60.67
2017-08-04T15:53:34.458Z,54.67
2017-08-04T15:56:02.306Z,54.20
2017-08-04T15:58:29.907Z,45.07
2017-08-04T16:00:58.986Z,40.30
2017-08-04T16:03:27.350Z,34.80
2017-08-04T16:05:55.242Z,30.87
2017-08-04T16:08:23.988Z,27.20
2017-08-04T16:10:52.204Z,25.03
2017-08-04T16:13:20.320Z,22.83
2017-08-04T16:15:48.175Z,21.20
2017-08-04T16:18:15.759Z,19.40
2017-08-04T16:20:45.026Z,20.33
2017-08-04T16:23:13.970Z,18.00
2017-08-04T16:25:42.219Z,16.97
2017-08-04T16:28:10.026Z,17.77
2017-08-04T16:30:44.196Z,17.53
2017-08-04T16:33:12.267Z,15.70
2017-08-04T16:35:40.380Z,15.47
2017-08-04T16:38:07.983Z,20.40
2017-08-04T16:46:46.248Z,14.10
2017-08-04T16:49:14.675Z,14.70
2017-08-04T16:51:43.723Z,14.67
2017-08-04T16:54:11.543Z,13.70
2017-08-04T16:56:39.182Z,18.00
2017-08-04T16:59:08.814Z,14.33
2017-08-04T17:01:36.444Z,19.23
2017-08-04T17:04:04.099Z,13.97
2017-08-04T17:06:32.556Z,12.63
2017-08-04T17:09:04.086Z,15.60
2017-08-04T17:11:43.879Z,15.70
2017-08-04T17:14:11.466Z,13.13
2017-08-04T17:16:39.582Z,16.77
2017-08-04T17:19:08.181Z,19.67
2017-08-04T17:21:35.843Z,17.60
2017-08-04T17:24:03.483Z,18.00
2017-08-04T17:26:31.074Z,15.17
2017-08-04T17:28:58.690Z,12.23
2017-08-04T17:31:26.314Z,18.93
2017-08-04T17:33:54.081Z,12.47
2017-08-04T17:36:21.670Z,15.70
2017-08-04T17:38:49.343Z,12.63
2017-08-04T17:41:17.224Z,17.70
2017-08-04T17:43:44.838Z,18.37
2017-08-04T17:46:12.623Z,17.97
2017-08-04T17:48:41.159Z,21.33
2017-08-04T17:51:09.494Z,18.00
2017-08-04T17:53:37.634Z,13.13
2017-08-04T17:56:05.218Z,15.37
2017-08-04T17:58:38.678Z,11.87
2017-08-04T18:01:06.319Z,13.33
2017-08-04T18:03:34.106Z,12.00
2017-08-04T18:06:01.687Z,12.87
2017-08-04T18:08:29.290Z,14.13
2017-08-04T18:10:56.870Z,12.43
2017-08-04T18:13:25.463Z,13.20
2017-08-04T18:15:53.086Z,12.23
2017-08-04T18:18:20.819Z,11.80
2017-08-04T18:20:49.223Z,15.70
